createdAt,value
2019-01-08T00:01:40.692Z,23.50
2019-01-08T00:04:07.934Z,35.03
2019-01-08T00:06:35.180Z,21.30
2019-01-08T00:09:02.839Z,25.80
2019-01-08T00:11:30.078Z,22.27
2019-01-08T00:13:57.275Z,23.33
2019-01-08T00:16:24.515Z,22.83
2019-01-08T00:18:51.772Z,29.30
2019-01-08T00:21:19.024Z,27.87
2019-01-08T00:23:46.262Z,26.00
2019-01-08T00:26:13.595Z,27.23
2019-01-08T00:28:43.369Z,27.50
2019-01-08T00:31:09.968Z,27.43
2019-01-08T00:33:37.320Z,30.03
2019-01-08T00:36:04.593Z,33.27
2019-01-08T00:38:31.810Z,22.63
2019-01-08T00:40:59.065Z,19.63
2019-01-08T00:43:26.284Z,25.67
2019-01-08T00:45:53.567Z,26.07
2019-01-08T00:48:20.811Z,27.50
2019-01-08T00:50:48.012Z,30.37
2019-01-08T00:53:15.278Z,22.73
2019-01-08T00:55:42.535Z,26.33
2019-01-08T00:58:09.759Z,23.83
2019-01-08T01:00:37.016Z,22.60
2019-01-08T01:03:04.276Z,26.17
2019-01-08T01:05:31.483Z,26.10
2019-01-08T01:07:58.691Z,28.33
2019-01-08T01:10:25.956Z,22.73
2019-01-08T01:12:53.186Z,40.70
2019-01-08T01:15:20.419Z,33.10
2019-01-08T01:17:47.663Z,18.50
2019-01-08T01:20:14.919Z,23.20
2019-01-08T01:22:42.165Z,19.47
2019-01-08T01:25:09.682Z,21.07
2019-01-08T01:27:36.943Z,18.63
2019-01-08T01:30:04.508Z,20.40
2019-01-08T01:32:31.731Z,25.73
2019-01-08T01:34:59.012Z,21.03
2019-01-08T01:37:26.212Z,25.93
2019-01-08T01:39:53.422Z,28.50
2019-01-08T01:42:20.680Z,24.80
2019-01-08T01:44:47.904Z,32.60
2019-01-08T01:47:15.135Z,28.33
2019-01-08T01:49:42.366Z,22.00
2019-01-08T01:52:09.605Z,25.63
2019-01-08T01:54:36.812Z,23.40
2019-01-08T01:57:04.072Z,24.97
2019-01-08T01:59:31.311Z,22.07
2019-01-08T02:01:58.527Z,27.90
2019-01-08T02:04:25.811Z,21.30
2019-01-08T02:06:53.060Z,24.03
2019-01-08T02:09:20.284Z,29.80
2019-01-08T02:11:47.530Z,33.10
2019-01-08T02:14:14.798Z,23.60
2019-01-08T02:16:42.012Z,24.50
2019-01-08T02:19:09.242Z,25.60
2019-01-08T02:21:36.492Z,23.83
2019-01-08T02:24:03.724Z,20.27
2019-01-08T02:26:30.945Z,19.33
2019-01-08T02:28:58.276Z,19.30
2019-01-08T02:31:25.492Z,17.53
2019-01-08T02:33:52.923Z,16.57
2019-01-08T02:36:20.161Z,19.77
2019-01-08T02:38:47.386Z,14.63
2019-01-08T02:41:14.746Z,17.87
2019-01-08T02:43:41.986Z,23.17
2019-01-08T02:46:09.362Z,19.67
2019-01-08T02:48:36.638Z,24.20
2019-01-08T02:51:03.899Z,25.03
2019-01-08T02:53:31.136Z,21.83
2019-01-08T02:55:58.396Z,23.90
2019-01-08T02:58:25.623Z,21.83
2019-01-08T03:00:52.835Z,23.63
2019-01-08T03:03:20.064Z,23.83
2019-01-08T03:05:47.291Z,22.50
2019-01-08T03:08:14.513Z,32.73
2019-01-08T03:10:41.788Z,22.13
2019-01-08T03:13:09.013Z,20.17
2019-01-08T03:15:36.208Z,27.00
2019-01-08T03:18:03.465Z,30.13
2019-01-08T03:20:30.673Z,23.83
2019-01-08T03:22:58.007Z,28.93
2019-01-08T03:25:25.265Z,27.50
2019-01-08T03:27:52.517Z,29.73
2019-01-08T03:30:19.779Z,28.70
2019-01-08T03:32:47.030Z,26.97
2019-01-08T03:35:14.256Z,24.77
2019-01-08T03:37:41.513Z,20.37
2019-01-08T03:40:08.767Z,19.07
2019-01-08T03:42:35.987Z,25.20
2019-01-08T03:45:03.368Z,21.63
2019-01-08T03:47:30.577Z,24.87
2019-01-08T03:49:57.805Z,34.43
2019-01-08T03:52:25.088Z,34.73
2019-01-08T03:54:52.309Z,32.33
2019-01-08T03:57:19.510Z,28.17
2019-01-08T03:59:46.764Z,25.10
2019-01-08T04:02:14.017Z,27.70
2019-01-08T04:04:41.252Z,36.93
2019-01-08T04:07:08.466Z,30.27
2019-01-08T04:09:35.800Z,31.93
2019-01-08T04:12:03.073Z,28.17
2019-01-08T04:14:30.285Z,29.17
2019-01-08T04:16:57.500Z,32.53
2019-01-08T04:19:24.755Z,36.80
2019-01-08T04:21:51.966Z,35.57
2019-01-08T04:24:19.217Z,35.20
2019-01-08T04:26:46.496Z,34.80
2019-01-08T04:29:13.714Z,40.10
2019-01-08T04:31:40.981Z,34.00
2019-01-08T04:34:08.227Z,36.57
2019-01-08T04:36:35.449Z,38.07
2019-01-08T04:39:03.902Z,30.23
2019-01-08T04:41:31.155Z,34.73
2019-01-08T04:43:58.378Z,38.50
2019-01-08T04:46:25.616Z,38.57
2019-01-08T04:48:53.008Z,34.17
2019-01-08T04:51:20.304Z,37.77
2019-01-08T04:53:47.511Z,39.63
2019-01-08T04:56:14.750Z,45.47
2019-01-08T04:58:42.043Z,35.43
2019-01-08T05:01:09.267Z,44.30
2019-01-08T05:03:36.460Z,37.97
2019-01-08T05:06:03.706Z,36.53
2019-01-08T05:08:30.924Z,41.40
2019-01-08T05:10:58.174Z,39.27
2019-01-08T05:13:25.422Z,39.03
2019-01-08T05:15:52.624Z,33.63
2019-01-08T05:18:19.907Z,36.90
2019-01-08T05:20:47.130Z,28.50
2019-01-08T05:23:14.427Z,31.40
2019-01-08T05:25:41.672Z,28.43
2019-01-08T05:28:08.889Z,30.87
2019-01-08T05:30:36.079Z,36.07
2019-01-08T05:33:03.375Z,39.57
2019-01-08T05:35:30.592Z,30.20
2019-01-08T05:37:57.821Z,38.93
2019-01-08T05:40:25.062Z,40.23
2019-01-08T05:42:52.276Z,40.07
2019-01-08T05:45:19.513Z,42.27
2019-01-08T05:47:46.733Z,47.00
2019-01-08T05:50:13.945Z,39.87
2019-01-08T05:52:41.233Z,44.53
2019-01-08T05:55:08.478Z,45.40
2019-01-08T05:57:35.690Z,44.37
2019-01-08T06:00:03.266Z,40.40
2019-01-08T06:02:30.538Z,36.63
2019-01-08T06:04:57.762Z,34.30
2019-01-08T06:07:25.060Z,35.67
2019-01-08T06:09:52.332Z,37.03
2019-01-08T06:12:19.652Z,38.23
2019-01-08T06:14:46.875Z,49.60
2019-01-08T06:17:14.181Z,40.43
2019-01-08T06:19:41.725Z,35.03
2019-01-08T06:22:08.955Z,43.87
2019-01-08T06:24:36.178Z,40.93
2019-01-08T06:27:03.431Z,43.90
2019-01-08T06:29:30.659Z,52.13
2019-01-08T06:31:57.893Z,39.03
2019-01-08T06:34:25.182Z,41.40
2019-01-08T06:36:52.417Z,38.10
2019-01-08T06:39:19.677Z,36.03
2019-01-08T06:41:46.882Z,27.50
2019-01-08T06:44:14.115Z,35.53
2019-01-08T06:46:43.147Z,31.57
2019-01-08T06:49:10.520Z,38.33
2019-01-08T06:51:37.863Z,33.33
2019-01-08T06:54:05.140Z,36.80
2019-01-08T06:56:32.352Z,34.93
2019-01-08T06:58:59.651Z,44.03
2019-01-08T07:01:29.413Z,36.07
2019-01-08T07:03:56.618Z,46.90
2019-01-08T07:06:23.859Z,35.97
2019-01-08T07:08:51.075Z,43.97
2019-01-08T07:11:18.394Z,41.90
2019-01-08T07:13:45.634Z,46.33
2019-01-08T07:16:12.839Z,44.73
2019-01-08T07:18:40.180Z,45.40
2019-01-08T07:21:07.395Z,45.10
2019-01-08T07:23:34.648Z,42.00
2019-01-08T07:26:01.887Z,43.27
2019-01-08T07:28:29.412Z,38.33
2019-01-08T07:30:56.875Z,39.60
2019-01-08T07:33:24.087Z,38.33
2019-01-08T07:35:51.319Z,48.33
2019-01-08T07:38:18.583Z,44.30
2019-01-08T07:40:45.800Z,43.43
2019-01-08T07:43:13.069Z,50.27
2019-01-08T07:45:40.328Z,46.03
2019-01-08T07:48:07.545Z,33.20
2019-01-08T07:50:34.820Z,39.00
2019-01-08T07:53:02.055Z,39.77
2019-01-08T07:55:29.298Z,44.37
2019-01-08T07:57:56.547Z,48.97
2019-01-08T08:00:23.741Z,48.17
2019-01-08T08:02:51.063Z,49.40
2019-01-08T08:05:18.318Z,44.63
2019-01-08T08:07:45.559Z,43.70
2019-01-08T08:10:13.319Z,52.37
2019-01-08T08:12:40.539Z,49.67
2019-01-08T08:15:07.991Z,42.67
2019-01-08T08:17:35.265Z,38.17
2019-01-08T08:20:03.862Z,38.70
2019-01-08T08:22:31.097Z,41.20
2019-01-08T08:24:58.339Z,37.27
2019-01-08T08:27:25.624Z,36.10
2019-01-08T08:29:52.867Z,38.03
2019-01-08T08:32:20.142Z,36.53
2019-01-08T08:34:47.439Z,33.17
2019-01-08T08:37:14.702Z,37.73
2019-01-08T08:39:41.910Z,38.63
2019-01-08T08:42:10.335Z,38.70
2019-01-08T08:44:37.577Z,29.57
2019-01-08T08:47:04.796Z,36.20
2019-01-08T08:49:32.019Z,47.07
2019-01-08T08:51:59.259Z,39.37
2019-01-08T08:54:26.524Z,34.23
2019-01-08T08:56:53.757Z,35.10
2019-01-08T08:59:20.995Z,41.87
2019-01-08T09:01:48.230Z,41.23
2019-01-08T09:04:15.488Z,28.50
2019-01-08T09:06:42.724Z,37.70
2019-01-08T09:09:10.044Z,30.73
2019-01-08T09:11:37.300Z,31.70
2019-01-08T09:14:04.517Z,32.97
2019-01-08T09:16:31.719Z,34.03
2019-01-08T09:18:59.125Z,33.57
2019-01-08T09:21:26.382Z,35.07
2019-01-08T09:23:53.680Z,39.93
2019-01-08T09:26:20.917Z,37.90
2019-01-08T09:28:48.172Z,39.70
2019-01-08T09:31:15.854Z,43.20
2019-01-08T09:33:43.116Z,38.13
2019-01-08T09:36:10.379Z,45.73
2019-01-08T09:38:37.629Z,38.53
2019-01-08T09:41:04.954Z,35.17
2019-01-08T09:43:32.208Z,41.53
2019-01-08T09:45:59.423Z,45.17
2019-01-08T09:48:26.707Z,44.57
2019-01-08T09:50:53.955Z,46.33
2019-01-08T09:53:21.172Z,44.33
2019-01-08T09:55:48.396Z,33.23
2019-01-08T09:58:15.662Z,41.90
2019-01-08T10:00:42.890Z,39.33
2019-01-08T10:03:10.206Z,30.67
2019-01-08T10:05:37.454Z,31.00
2019-01-08T10:08:04.672Z,29.90
2019-01-08T10:10:31.925Z,33.87
2019-01-08T10:12:59.223Z,33.67
2019-01-08T10:15:26.519Z,37.13
2019-01-08T10:17:53.744Z,30.03
2019-01-08T10:20:20.987Z,29.90
2019-01-08T10:22:48.348Z,32.13
2019-01-08T10:25:15.582Z,32.83
2019-01-08T10:27:42.843Z,40.13
2019-01-08T10:30:10.247Z,34.07
2019-01-08T10:32:37.454Z,30.40
2019-01-08T10:35:05.081Z,37.30
2019-01-08T10:37:32.424Z,32.20
2019-01-08T10:40:01.506Z,33.67
2019-01-08T10:42:28.807Z,31.73
2019-01-08T10:44:56.099Z,34.90
2019-01-08T10:47:23.318Z,33.00
2019-01-08T10:49:50.565Z,32.07
2019-01-08T10:52:18.037Z,30.43
2019-01-08T10:54:45.334Z,41.23
2019-01-08T10:57:12.587Z,38.70
2019-01-08T10:59:39.985Z,37.17
2019-01-08T11:02:07.253Z,35.83
2019-01-08T11:04:34.571Z,41.37
2019-01-08T11:07:01.792Z,35.27
2019-01-08T11:09:29.269Z,31.10
2019-01-08T11:11:56.836Z,33.17
2019-01-08T11:14:24.076Z,25.87
2019-01-08T11:16:53.366Z,37.53
2019-01-08T11:19:20.793Z,34.93
2019-01-08T11:21:48.276Z,38.57
2019-01-08T11:24:15.559Z,34.50
2019-01-08T11:26:42.834Z,30.20
2019-01-08T11:29:10.019Z,30.70
2019-01-08T11:31:37.269Z,31.80
2019-01-08T11:34:04.493Z,31.70
2019-01-08T11:36:31.720Z,45.87
2019-01-08T11:38:58.974Z,40.67
2019-01-08T11:41:26.212Z,30.80
2019-01-08T11:43:53.415Z,33.60
2019-01-08T11:46:20.676Z,34.73
2019-01-08T11:48:47.905Z,29.47
2019-01-08T11:51:15.280Z,28.90
2019-01-08T11:53:42.555Z,29.37
2019-01-08T11:56:09.756Z,23.40
2019-01-08T11:58:37.017Z,23.80
2019-01-08T12:01:04.241Z,23.77
2019-01-08T12:03:31.496Z,31.53
2019-01-08T12:05:58.713Z,27.30
2019-01-08T12:08:25.939Z,24.70
2019-01-08T12:10:53.348Z,28.77
2019-01-08T12:13:20.541Z,28.63
2019-01-08T12:15:47.976Z,21.00
2019-01-08T12:18:16.246Z,27.57
2019-01-08T12:20:43.562Z,26.53
2019-01-08T12:23:10.882Z,40.50
2019-01-08T12:25:38.176Z,36.57
2019-01-08T12:28:05.444Z,38.53
2019-01-08T12:30:32.746Z,35.47
2019-01-08T12:32:59.971Z,28.20
2019-01-08T12:35:27.224Z,29.53
2019-01-08T12:37:54.524Z,28.80
2019-01-08T12:40:21.773Z,31.30
2019-01-08T12:42:49.201Z,26.57
2019-01-08T12:45:16.430Z,34.63
2019-01-08T12:47:43.919Z,33.90
2019-01-08T12:50:11.179Z,25.23
2019-01-08T12:52:38.457Z,25.37
2019-01-08T12:55:05.751Z,34.23
2019-01-08T12:57:33.101Z,28.83
2019-01-08T13:00:00.353Z,37.10
2019-01-08T13:02:27.731Z,31.57
2019-01-08T13:04:54.998Z,28.07
2019-01-08T13:07:22.295Z,34.57
2019-01-08T13:09:49.555Z,36.30
2019-01-08T13:12:16.780Z,39.50
2019-01-08T13:14:44.032Z,31.30
2019-01-08T13:17:11.879Z,27.57
2019-01-08T13:19:39.462Z,37.07
2019-01-08T13:22:06.817Z,43.93
2019-01-08T13:24:34.062Z,29.43
2019-01-08T13:27:01.381Z,26.43
2019-01-08T13:29:28.664Z,27.60
2019-01-08T13:31:55.887Z,32.83
2019-01-08T13:34:23.192Z,34.37
2019-01-08T13:36:50.415Z,36.27
2019-01-08T13:39:17.649Z,33.50
2019-01-08T13:41:44.924Z,32.53
2019-01-08T13:44:13.832Z,31.00
2019-01-08T13:46:41.140Z,34.33
2019-01-08T13:49:10.958Z,39.23
2019-01-08T13:51:38.313Z,27.73
2019-01-08T13:54:05.527Z,32.10
2019-01-08T13:56:32.756Z,33.60
2019-01-08T13:59:05.193Z,25.73
2019-01-08T14:01:32.412Z,36.20
2019-01-08T14:03:59.652Z,26.93
2019-01-08T14:06:26.891Z,26.63
2019-01-08T14:08:54.124Z,28.10
2019-01-08T14:11:21.345Z,31.90
2019-01-08T14:13:48.875Z,32.67
2019-01-08T14:16:16.163Z,27.47
2019-01-08T14:18:43.427Z,26.67
2019-01-08T14:21:10.727Z,31.53
2019-01-08T14:23:38.025Z,22.10
2019-01-08T14:26:05.298Z,25.53
2019-01-08T14:28:32.559Z,29.60
2019-01-08T14:31:00.110Z,25.93
2019-01-08T14:33:27.327Z,27.30
2019-01-08T14:35:54.562Z,31.73
2019-01-08T14:38:21.811Z,36.00
2019-01-08T14:40:49.178Z,40.50
2019-01-08T14:43:16.394Z,36.70
2019-01-08T14:45:43.633Z,32.80
2019-01-08T14:48:10.892Z,51.70
2019-01-08T14:50:38.255Z,32.03
2019-01-08T14:53:05.463Z,43.93
2019-01-08T14:55:32.691Z,35.10
2019-01-08T14:57:59.939Z,38.73
2019-01-08T15:00:27.171Z,29.47
2019-01-08T15:02:54.418Z,32.30
2019-01-08T15:05:21.782Z,32.17
2019-01-08T15:07:49.040Z,27.67
2019-01-08T15:10:16.367Z,39.10
2019-01-08T15:12:43.686Z,30.13
2019-01-08T15:15:12.853Z,35.80
2019-01-08T15:17:40.157Z,34.90
2019-01-08T15:20:07.524Z,31.20
2019-01-08T15:22:34.765Z,37.47
2019-01-08T15:25:02.061Z,35.10
2019-01-08T15:27:29.424Z,39.23
2019-01-08T15:29:56.660Z,37.00
2019-01-08T15:32:23.944Z,36.27
2019-01-08T15:34:51.185Z,28.97
2019-01-08T15:37:18.492Z,33.47
2019-01-08T15:39:45.788Z,29.00
2019-01-08T15:42:13.076Z,34.30
2019-01-08T15:44:40.323Z,29.37
2019-01-08T15:47:07.901Z,24.73
2019-01-08T15:49:35.114Z,25.53
2019-01-08T15:52:02.526Z,27.83
2019-01-08T15:54:29.882Z,26.50
2019-01-08T15:56:57.308Z,28.90
2019-01-08T15:59:24.593Z,32.70
2019-01-08T16:01:51.810Z,36.03
2019-01-08T16:04:19.066Z,29.23
2019-01-08T16:06:46.381Z,33.13
2019-01-08T16:09:13.589Z,38.97
2019-01-08T16:11:40.856Z,28.70
2019-01-08T16:14:08.112Z,33.80
2019-01-08T16:16:35.345Z,21.83
2019-01-08T16:19:02.722Z,27.50
2019-01-08T16:21:29.950Z,37.23
2019-01-08T16:23:57.157Z,34.10
2019-01-08T16:26:24.472Z,38.67
2019-01-08T16:28:51.781Z,37.43
2019-01-08T16:31:19.457Z,38.07
2019-01-08T16:33:46.680Z,33.53
2019-01-08T16:36:13.956Z,30.17
2019-01-08T16:38:41.167Z,29.90
2019-01-08T16:41:08.377Z,36.80
2019-01-08T16:43:35.626Z,26.57
2019-01-08T16:46:02.858Z,31.20
2019-01-08T16:48:30.077Z,31.87
2019-01-08T16:50:57.367Z,28.13
2019-01-08T16:53:24.631Z,38.30
2019-01-08T16:55:51.871Z,34.17
2019-01-08T16:58:19.137Z,38.00
2019-01-08T17:00:46.603Z,29.87
2019-01-08T17:03:13.991Z,31.33
2019-01-08T17:05:43.630Z,31.17
2019-01-08T17:08:10.852Z,26.27
2019-01-08T17:10:38.141Z,23.17
2019-01-08T17:13:06.730Z,26.40
2019-01-08T17:15:34.071Z,22.27
2019-01-08T17:18:01.356Z,27.70
2019-01-08T17:20:28.595Z,26.50
2019-01-08T17:22:56.028Z,28.43
2019-01-08T17:25:23.359Z,28.93
2019-01-08T17:27:50.656Z,27.47
2019-01-08T17:30:20.162Z,31.90
2019-01-08T17:32:47.495Z,36.67
2019-01-08T17:35:14.906Z,39.50
2019-01-08T17:37:42.240Z,28.33
2019-01-08T17:40:09.522Z,25.67
2019-01-08T17:42:36.990Z,23.77
2019-01-08T17:45:05.526Z,29.10
2019-01-08T17:47:33.042Z,26.40
2019-01-08T17:50:00.294Z,31.47
2019-01-08T17:52:27.845Z,31.10
2019-01-08T17:54:55.057Z,35.90
2019-01-08T17:57:22.495Z,27.13
2019-01-08T17:59:49.839Z,34.60
2019-01-08T18:02:18.434Z,28.10
2019-01-08T18:04:45.726Z,37.27
2019-01-08T18:07:12.945Z,30.90
2019-01-08T18:09:40.187Z,19.77
2019-01-08T18:12:07.395Z,25.27
2019-01-08T18:14:35.704Z,18.83
2019-01-08T18:17:03.514Z,26.43
2019-01-08T18:19:31.062Z,22.97
2019-01-08T18:21:58.539Z,29.03
2019-01-08T18:24:25.895Z,31.60
2019-01-08T18:26:53.067Z,29.23
2019-01-08T18:29:20.718Z,31.10
2019-01-08T18:31:48.181Z,35.70
2019-01-08T18:34:15.458Z,22.30
2019-01-08T18:36:42.695Z,20.90
2019-01-08T18:39:09.920Z,25.13
2019-01-08T18:41:37.211Z,21.93
2019-01-08T18:44:04.434Z,28.30
2019-01-08T18:46:31.851Z,27.80
2019-01-08T18:48:59.661Z,21.77
2019-01-08T18:51:26.877Z,19.60
2019-01-08T18:53:55.238Z,32.63
2019-01-08T18:56:22.470Z,26.93
2019-01-08T18:58:49.908Z,29.20
2019-01-08T19:01:17.252Z,33.30
2019-01-08T19:03:44.480Z,26.23
2019-01-08T19:06:11.675Z,30.93
2019-01-08T19:09:15.065Z,31.53
2019-01-08T19:11:42.280Z,40.33
2019-01-08T19:14:10.088Z,29.97
2019-01-08T19:16:37.323Z,29.13
2019-01-08T19:19:04.530Z,34.20
2019-01-08T19:21:31.892Z,26.00
2019-01-08T19:23:59.167Z,28.53
2019-01-08T19:26:26.649Z,24.00
2019-01-08T19:28:54.118Z,19.53
2019-01-08T19:31:21.363Z,23.10
2019-01-08T19:33:48.573Z,16.53
2019-01-08T19:36:15.916Z,22.50
2019-01-08T19:38:43.209Z,21.03
2019-01-08T19:41:10.930Z,18.30
2019-01-08T19:43:38.244Z,21.03
2019-01-08T19:46:05.483Z,29.60
2019-01-08T19:48:32.752Z,27.73
2019-01-08T19:50:59.980Z,24.77
2019-01-08T19:53:27.255Z,25.97
2019-01-08T19:55:54.512Z,27.43
2019-01-08T19:58:21.812Z,28.30
2019-01-08T20:00:49.109Z,34.83
2019-01-08T20:03:16.376Z,28.53
2019-01-08T20:05:43.596Z,28.80
2019-01-08T20:08:11.068Z,29.50
2019-01-08T20:10:38.261Z,26.37
2019-01-08T20:13:05.553Z,41.23
2019-01-08T20:15:32.820Z,31.93
2019-01-08T20:18:00.043Z,21.37
2019-01-08T20:20:27.395Z,25.10
2019-01-08T20:22:54.656Z,23.40
2019-01-08T20:25:21.881Z,24.93
2019-01-08T20:27:50.140Z,27.37
2019-01-08T20:30:17.558Z,28.90
2019-01-08T20:32:44.910Z,28.87
2019-01-08T20:35:12.130Z,22.47
2019-01-08T20:37:39.862Z,22.20
2019-01-08T20:40:07.189Z,23.57
2019-01-08T20:42:34.402Z,25.53
2019-01-08T20:45:01.696Z,18.97
2019-01-08T20:47:28.900Z,11.87
2019-01-08T20:49:56.116Z,18.63
2019-01-08T20:52:23.438Z,20.20
2019-01-08T20:54:50.638Z,26.67
2019-01-08T20:57:17.879Z,27.70
2019-01-08T20:59:45.124Z,21.50
2019-01-08T21:02:12.375Z,24.30
2019-01-08T21:04:39.600Z,18.80
2019-01-08T21:07:06.847Z,9.87
2019-01-08T21:09:34.063Z,18.60
2019-01-08T21:12:01.335Z,17.00
2019-01-08T21:14:28.621Z,21.73
2019-01-08T21:16:55.851Z,17.80
2019-01-08T21:19:23.068Z,20.03
2019-01-08T21:21:50.348Z,23.50
2019-01-08T21:24:17.603Z,22.53
2019-01-08T21:26:44.815Z,9.90
2019-01-08T21:29:12.162Z,14.03
2019-01-08T21:31:39.484Z,18.90
2019-01-08T21:34:06.707Z,24.33
2019-01-08T21:36:33.958Z,27.80
2019-01-08T21:39:01.176Z,17.10
2019-01-08T21:41:28.412Z,24.50
2019-01-08T21:43:55.644Z,26.40
2019-01-08T21:46:22.866Z,19.77
2019-01-08T21:48:50.292Z,27.57
2019-01-08T21:51:17.593Z,25.97
2019-01-08T21:53:44.811Z,25.67
2019-01-08T21:56:12.058Z,25.03
2019-01-08T21:58:39.275Z,21.33
2019-01-08T22:01:06.510Z,26.00
2019-01-08T22:03:33.903Z,19.87
2019-01-08T22:06:01.189Z,26.17
2019-01-08T22:08:28.595Z,19.97
2019-01-08T22:10:55.824Z,23.73
2019-01-08T22:13:23.017Z,19.87
2019-01-08T22:15:50.277Z,26.83
2019-01-08T22:18:17.880Z,26.13
2019-01-08T22:20:45.076Z,27.17
2019-01-08T22:23:12.322Z,26.07
2019-01-08T22:25:39.559Z,24.47
2019-01-08T22:28:06.796Z,22.83
2019-01-08T22:30:34.069Z,27.53
2019-01-08T22:33:02.454Z,20.60
2019-01-08T22:35:29.707Z,33.40
2019-01-08T22:37:56.935Z,30.27
2019-01-08T22:40:24.178Z,33.70
2019-01-08T22:42:51.573Z,27.83
2019-01-08T22:45:19.044Z,29.33
2019-01-08T22:47:46.323Z,28.73
2019-01-08T22:50:13.902Z,31.43
2019-01-08T22:52:59.548Z,29.67
2019-01-08T22:55:38.229Z,23.73
2019-01-08T22:58:21.753Z,30.73
2019-01-08T23:04:21.707Z,31.30
2019-01-08T23:06:49.401Z,23.20
2019-01-08T23:09:17.164Z,24.27
2019-01-08T23:11:44.789Z,30.07
2019-01-08T23:14:12.369Z,11.93
2019-01-08T23:16:39.956Z,9.07
2019-01-08T23:19:07.870Z,14.60
2019-01-08T23:21:35.442Z,5.70
2019-01-08T23:24:02.698Z,9.63
2019-01-08T23:26:29.926Z,13.80
2019-01-08T23:28:57.153Z,19.03
2019-01-08T23:31:24.463Z,21.53
2019-01-08T23:33:51.732Z,30.40
2019-01-08T23:36:18.954Z,25.20
2019-01-08T23:38:46.329Z,12.03
2019-01-08T23:41:13.632Z,14.83
2019-01-08T23:43:40.897Z,11.93
2019-01-08T23:46:08.105Z,11.80
2019-01-08T23:48:35.318Z,24.33
2019-01-08T23:51:02.570Z,20.73
2019-01-08T23:53:31.971Z,16.57
2019-01-08T23:56:02.485Z,23.37
2019-01-08T23:58:29.709Z,20.57
